Time;durP1;ratioP1;P1;durP2;ratioP2;P2;SDS_P1;SDS_P2;PMS_P1;PMS_P2;Temp;Humidity;BMP_temperature;BMP_pressure;BME280_temperature;BME280_humidity;BME280_pressure;Samples;Min_cycle;Max_cycle;Signal;HPM_P1;HPM_P2
2021/06/23 00:02:09;;;;;;;19.90;9.02;;;;;;;;;;4262126;33;20144;-68
2021/06/23 00:04:35;;;;;;;11.77;8.65;;;;;;;;;;4260780;33;20100;-65
2021/06/23 00:07:01;;;;;;;10.88;8.98;;;;;;;;;;4261960;33;20120;-66
2021/06/23 00:09:27;;;;;;;10.93;8.68;;;;;;;;;;4262067;33;20260;-65
2021/06/23 00:11:55;;;;;;;13.00;8.98;;;;;;;;;;4262036;33;20199;-65
2021/06/23 00:14:22;;;;;;;23.67;9.63;;;;;;;;;;4261021;33;20207;-68
2021/06/23 00:44:31;;;;;;;15.70;8.88;;;;;;;;;;4605821;28;20258;-64
2021/06/23 00:46:57;;;;;;;12.02;9.57;;;;;;;;;;4276128;33;20450;-67
2021/06/23 00:49:30;;;;;;;11.98;9.48;;;;;;;;;;4250960;33;20143;-64
2021/06/23 00:52:00;;;;;;;15.68;10.10;;;;;;;;;;4263662;33;20289;-65
2021/06/23 00:54:26;;;;;;;13.27;9.35;;;;;;;;;;4262520;33;20104;-67
2021/06/23 00:56:52;;;;;;;13.85;8.48;;;;;;;;;;4251339;33;20104;-68
2021/06/23 00:59:18;;;;;;;13.00;9.10;;;;;;;;;;4250990;33;20130;-65
2021/06/23 01:01:44;;;;;;;15.57;9.00;;;;;;;;;;4250203;33;20151;-64
2021/06/23 01:04:10;;;;;;;19.95;10.43;;;;;;;;;;4250929;33;20222;-64
2021/06/23 01:06:37;;;;;;;15.05;9.93;;;;;;;;;;4262941;33;20143;-67
2021/06/23 01:09:03;;;;;;;13.62;8.85;;;;;;;;;;4250795;33;20115;-64
2021/06/23 01:11:29;;;;;;;11.80;8.77;;;;;;;;;;4275901;33;20106;-65
2021/06/23 01:13:58;;;;;;;12.95;9.43;;;;;;;;;;4275741;33;20519;-68
2021/06/23 01:16:29;;;;;;;12.15;9.65;;;;;;;;;;4262628;33;20112;-64
2021/06/23 01:18:58;;;;;;;14.57;10.68;;;;;;;;;;4273051;33;20119;-64
2021/06/23 01:21:25;;;;;;;17.85;9.38;;;;;;;;;;4275761;33;20123;-67
2021/06/23 01:23:51;;;;;;;16.65;11.07;;;;;;;;;;4250851;33;20116;-64
2021/06/23 01:26:17;;;;;;;14.25;8.95;;;;;;;;;;4274355;33;20199;-67
2021/06/23 01:28:43;;;;;;;14.38;9.80;;;;;;;;;;4261349;33;20127;-67
2021/06/23 01:31:09;;;;;;;16.67;9.65;;;;;;;;;;4248447;33;20114;-67
2021/06/23 01:33:35;;;;;;;15.30;9.55;;;;;;;;;;4248302;33;20100;-68
2021/06/23 01:36:01;;;;;;;11.10;9.48;;;;;;;;;;4244986;33;20104;-67
2021/06/23 01:38:27;;;;;;;15.15;9.75;;;;;;;;;;4262411;33;20112;-64
2021/06/23 01:40:53;;;;;;;16.48;9.68;;;;;;;;;;4275738;33;20139;-67
2021/06/23 01:43:19;;;;;;;18.27;9.55;;;;;;;;;;4275393;33;20554;-64
2021/06/23 01:45:46;;;;;;;13.13;9.70;;;;;;;;;;4275604;33;20096;-65
2021/06/23 01:48:24;;;;;;;23.70;10.38;;;;;;;;;;4275387;33;20167;-64
2021/06/23 01:50:55;;;;;;;20.20;10.45;;;;;;;;;;4263405;33;20123;-65
2021/06/23 01:53:21;;;;;;;18.33;10.55;;;;;;;;;;4275505;33;20147;-64
2021/06/23 01:55:49;;;;;;;16.60;10.43;;;;;;;;;;4275732;33;20243;-64
2021/06/23 01:58:15;;;;;;;20.62;11.10;;;;;;;;;;4262268;33;20211;-64
2021/06/23 02:00:59;;;;;;;14.60;9.73;;;;;;;;;;4262327;33;20119;-68
2021/06/23 02:03:50;;;;;;;15.93;10.60;;;;;;;;;;4262481;33;20215;-68
2021/06/23 02:06:19;;;;;;;19.23;11.07;;;;;;;;;;4275540;33;20200;-64
2021/06/23 02:09:08;;;;;;;14.18;9.48;;;;;;;;;;4262199;33;20088;-64
2021/06/23 02:11:46;;;;;;;21.27;11.07;;;;;;;;;;4250736;33;20535;-65
2021/06/23 02:14:40;;;;;;;15.30;10.27;;;;;;;;;;4275307;33;20534;-64
2021/06/23 02:17:08;;;;;;;14.15;9.13;;;;;;;;;;4262078;33;20531;-64
2021/06/23 02:19:53;;;;;;;11.45;9.13;;;;;;;;;;4275294;33;20096;-63
2021/06/23 02:22:26;;;;;;;11.55;9.65;;;;;;;;;;4275644;33;20135;-67
2021/06/23 02:24:54;;;;;;;10.25;8.45;;;;;;;;;;4262023;33;20538;-67
2021/06/23 02:27:20;;;;;;;15.45;9.13;;;;;;;;;;4273644;33;20112;-65
2021/06/23 02:29:46;;;;;;;15.40;9.48;;;;;;;;;;4275158;33;20190;-64
2021/06/23 02:32:15;;;;;;;13.65;9.00;;;;;;;;;;4261764;33;20096;-63
2021/06/23 02:34:41;;;;;;;16.52;9.15;;;;;;;;;;4262070;33;20122;-67
2021/06/23 02:37:08;;;;;;;14.35;9.20;;;;;;;;;;4273666;33;20114;-66
2021/06/23 02:39:35;;;;;;;15.70;9.73;;;;;;;;;;4261894;33;20530;-67
2021/06/23 02:42:01;;;;;;;13.68;10.02;;;;;;;;;;4262024;33;20107;-67
2021/06/23 02:44:27;;;;;;;15.20;9.57;;;;;;;;;;4261520;33;20105;-65
2021/06/23 02:46:53;;;;;;;22.08;10.02;;;;;;;;;;4274861;33;20111;-66
2021/06/23 02:49:19;;;;;;;14.80;9.80;;;;;;;;;;4261417;33;20203;-72
2021/06/23 02:51:46;;;;;;;19.75;8.77;;;;;;;;;;4261951;33;20180;-68
2021/06/23 02:54:12;;;;;;;17.65;9.70;;;;;;;;;;4263116;33;20543;-65
2021/06/23 02:56:38;;;;;;;14.68;8.43;;;;;;;;;;4247418;33;20135;-67
2021/06/23 02:59:04;;;;;;;14.90;8.75;;;;;;;;;;4260400;33;20131;-69
2021/06/23 03:01:30;;;;;;;14.55;9.00;;;;;;;;;;4260758;33;20124;-68
2021/06/23 03:03:56;;;;;;;16.25;8.48;;;;;;;;;;4260664;33;20223;-66
2021/06/23 03:06:23;;;;;;;15.27;8.27;;;;;;;;;;4260091;33;20673;-69
2021/06/23 03:08:48;;;;;;;17.30;7.22;;;;;;;;;;4258041;33;20103;-67
2021/06/23 03:11:14;;;;;;;9.85;7.45;;;;;;;;;;4244990;33;20127;-64
2021/06/23 03:14:02;;;;;;;9.25;6.85;;;;;;;;;;4258132;33;20628;-69
2021/06/23 03:16:32;;;;;;;11.12;6.50;;;;;;;;;;4258760;33;20219;-67
2021/06/23 03:18:58;;;;;;;15.18;6.97;;;;;;;;;;4258048;33;20111;-64
2021/06/23 03:21:24;;;;;;;16.37;6.65;;;;;;;;;;4269226;33;20120;-65
2021/06/23 03:23:51;;;;;;;10.35;6.37;;;;;;;;;;4274510;33;20506;-65
2021/06/23 03:26:17;;;;;;;9.65;6.47;;;;;;;;;;4263383;33;20108;-65
2021/06/23 03:28:43;;;;;;;11.15;6.47;;;;;;;;;;4276858;33;20106;-69
2021/06/23 03:31:09;;;;;;;16.05;6.97;;;;;;;;;;4275276;33;20119;-68
2021/06/23 03:33:36;;;;;;;13.10;6.87;;;;;;;;;;4275245;33;20131;-67
2021/06/23 03:36:02;;;;;;;15.50;6.45;;;;;;;;;;4276527;33;20534;-65
2021/06/23 03:38:27;;;;;;;14.75;6.95;;;;;;;;;;4276922;33;20150;-66
2021/06/23 03:40:53;;;;;;;12.75;6.75;;;;;;;;;;4263608;33;20229;-68
2021/06/23 03:43:19;;;;;;;12.23;6.32;;;;;;;;;;4275251;33;20590;-65
2021/06/23 03:45:46;;;;;;;7.45;5.85;;;;;;;;;;4276650;33;20550;-66
2021/06/23 03:48:12;;;;;;;15.88;6.93;;;;;;;;;;4263262;33;20132;-67
2021/06/23 03:50:38;;;;;;;15.05;5.62;;;;;;;;;;4275005;33;20124;-66
2021/06/23 03:53:04;;;;;;;7.90;5.75;;;;;;;;;;4263218;33;20147;-67
2021/06/23 03:55:30;;;;;;;14.68;6.00;;;;;;;;;;4276470;33;20308;-66
2021/06/23 03:57:56;;;;;;;14.98;7.00;;;;;;;;;;4276415;33;20124;-66
2021/06/23 04:00:27;;;;;;;9.10;6.20;;;;;;;;;;4275131;33;20112;-66
2021/06/23 04:02:53;;;;;;;11.95;6.05;;;;;;;;;;4262928;33;20143;-65
2021/06/23 04:05:19;;;;;;;16.35;6.12;;;;;;;;;;4274864;33;20689;-66
2021/06/23 04:07:45;;;;;;;15.25;6.65;;;;;;;;;;4276179;33;20124;-66
2021/06/23 04:10:11;;;;;;;10.88;5.65;;;;;;;;;;4276562;33;20432;-66
2021/06/23 04:12:38;;;;;;;10.95;5.72;;;;;;;;;;4276469;33;20211;-66
2021/06/23 04:15:05;;;;;;;8.05;5.00;;;;;;;;;;4276580;33;20120;-66
2021/06/23 04:17:31;;;;;;;6.60;5.12;;;;;;;;;;4263305;33;20673;-65
2021/06/23 04:19:57;;;;;;;14.68;5.10;;;;;;;;;;4276433;33;20111;-66
2021/06/23 04:22:24;;;;;;;13.38;5.07;;;;;;;;;;4274997;33;20144;-65
2021/06/23 04:24:52;;;;;;;9.23;5.43;;;;;;;;;;4276261;33;20536;-66
2021/06/23 04:27:19;;;;;;;9.05;5.45;;;;;;;;;;4276284;33;20111;-66
2021/06/23 04:29:45;;;;;;;11.70;5.50;;;;;;;;;;4276404;33;20397;-65
2021/06/23 04:32:11;;;;;;;16.90;5.85;;;;;;;;;;4276360;33;20534;-66
2021/06/23 04:34:37;;;;;;;7.75;5.90;;;;;;;;;;4275639;33;20108;-66
2021/06/23 04:37:03;;;;;;;10.25;5.50;;;;;;;;;;4275037;33;20115;-66
2021/06/23 04:39:29;;;;;;;16.00;5.72;;;;;;;;;;4276189;33;20120;-65
2021/06/23 04:41:55;;;;;;;14.80;6.37;;;;;;;;;;4276129;33;20232;-65
2021/06/23 04:44:21;;;;;;;16.50;6.12;;;;;;;;;;4274260;33;20154;-65
2021/06/23 04:46:47;;;;;;;12.80;6.00;;;;;;;;;;4276447;33;20198;-66
2021/06/23 04:49:13;;;;;;;10.48;6.43;;;;;;;;;;4276127;33;20104;-65
2021/06/23 04:51:39;;;;;;;13.68;6.75;;;;;;;;;;4276070;33;20119;-66
2021/06/23 04:54:05;;;;;;;9.73;6.10;;;;;;;;;;4275965;33;20084;-66
2021/06/23 04:56:31;;;;;;;15.60;6.72;;;;;;;;;;4276170;33;20107;-64
2021/06/23 04:58:58;;;;;;;13.45;5.47;;;;;;;;;;4276067;33;20194;-65
2021/06/23 05:01:25;;;;;;;11.93;6.22;;;;;;;;;;4276098;33;20107;-65
2021/06/23 05:03:50;;;;;;;14.30;5.72;;;;;;;;;;4274530;33;20131;-65
2021/06/23 05:06:18;;;;;;;18.15;6.10;;;;;;;;;;4275868;33;20230;-64
2021/06/23 05:08:46;;;;;;;11.75;6.18;;;;;;;;;;4274631;33;20544;-64
2021/06/23 05:11:12;;;;;;;12.98;5.70;;;;;;;;;;4275832;33;20140;-64
2021/06/23 05:13:39;;;;;;;7.40;4.90;;;;;;;;;;4275888;33;20103;-65
2021/06/23 05:16:06;;;;;;;15.18;5.68;;;;;;;;;;4274391;33;20131;-65
2021/06/23 05:18:33;;;;;;;7.93;4.95;;;;;;;;;;4276001;33;20124;-65
2021/06/23 05:20:59;;;;;;;7.03;4.80;;;;;;;;;;4274534;33;20127;-64
2021/06/23 05:23:25;;;;;;;9.27;5.05;;;;;;;;;;4274425;33;20172;-65
2021/06/23 05:25:51;;;;;;;8.43;4.90;;;;;;;;;;4262697;33;20310;-65
2021/06/23 05:28:18;;;;;;;10.65;4.55;;;;;;;;;;4262391;33;20451;-65
2021/06/23 05:30:43;;;;;;;8.07;4.97;;;;;;;;;;4275852;33;20238;-64
2021/06/23 05:33:09;;;;;;;5.90;4.53;;;;;;;;;;4275787;33;20123;-65
2021/06/23 05:35:36;;;;;;;9.38;4.60;;;;;;;;;;4275718;33;20119;-64
2021/06/23 05:38:02;;;;;;;8.82;4.53;;;;;;;;;;4275805;33;20123;-64
2021/06/23 05:40:28;;;;;;;9.15;4.60;;;;;;;;;;4275548;33;20135;-66
2021/06/23 05:42:54;;;;;;;7.95;4.57;;;;;;;;;;4275554;33;20231;-65
2021/06/23 05:45:20;;;;;;;7.72;3.97;;;;;;;;;;4274133;33;20518;-67
2021/06/23 05:47:46;;;;;;;4.70;4.22;;;;;;;;;;4275319;33;20140;-66
2021/06/23 05:50:12;;;;;;;6.93;4.00;;;;;;;;;;4275579;33;20535;-66
2021/06/23 05:52:38;;;;;;;18.87;4.85;;;;;;;;;;4275923;33;20127;-66
2021/06/23 05:55:05;;;;;;;7.30;4.00;;;;;;;;;;4275500;33;20119;-66
2021/06/23 05:57:31;;;;;;;4.60;3.75;;;;;;;;;;4275595;33;20128;-66
2021/06/23 05:59:56;;;;;;;16.77;4.20;;;;;;;;;;4275350;33;20194;-66
2021/06/23 06:02:23;;;;;;;5.68;3.90;;;;;;;;;;4275636;33;20714;-66
2021/06/23 06:04:49;;;;;;;14.68;4.35;;;;;;;;;;4275391;33;20134;-65
2021/06/23 06:07:14;;;;;;;6.12;4.03;;;;;;;;;;4275482;33;20191;-66
2021/06/23 06:09:40;;;;;;;5.53;3.85;;;;;;;;;;4275193;33;20124;-66
2021/06/23 06:12:07;;;;;;;4.57;3.67;;;;;;;;;;4275654;33;20676;-66
2021/06/23 06:14:33;;;;;;;4.45;3.47;;;;;;;;;;4275352;33;20130;-66
2021/06/23 06:17:00;;;;;;;5.03;3.40;;;;;;;;;;4275471;33;20127;-66
2021/06/23 06:19:26;;;;;;;4.85;2.90;;;;;;;;;;4275417;33;20195;-65
2021/06/23 06:21:54;;;;;;;5.97;3.03;;;;;;;;;;4262056;33;20119;-66
2021/06/23 06:24:21;;;;;;;12.02;3.67;;;;;;;;;;4275244;33;20100;-66
2021/06/23 06:26:46;;;;;;;4.78;3.00;;;;;;;;;;4275397;33;20527;-65
2021/06/23 06:29:12;;;;;;;4.70;3.30;;;;;;;;;;4275282;33;20560;-66
2021/06/23 06:31:38;;;;;;;5.40;3.10;;;;;;;;;;4275403;33;20134;-66
2021/06/23 06:34:04;;;;;;;5.12;2.90;;;;;;;;;;4275094;33;20204;-67
2021/06/23 06:36:30;;;;;;;4.93;3.05;;;;;;;;;;4250447;33;20128;-65
2021/06/23 06:38:56;;;;;;;2.97;2.72;;;;;;;;;;4261787;33;20119;-65
2021/06/23 06:41:22;;;;;;;2.60;2.40;;;;;;;;;;4275127;33;20123;-64
2021/06/23 06:43:49;;;;;;;4.43;2.58;;;;;;;;;;4275213;33;20119;-66
2021/06/23 06:46:15;;;;;;;3.17;2.42;;;;;;;;;;4275112;33;20128;-66
2021/06/23 06:48:40;;;;;;;4.93;2.58;;;;;;;;;;4273940;33;20180;-65
2021/06/23 06:51:06;;;;;;;2.90;2.60;;;;;;;;;;4275425;33;20100;-65
2021/06/23 06:53:32;;;;;;;4.40;3.28;;;;;;;;;;4274942;33;20096;-64
2021/06/23 06:55:58;;;;;;;6.15;3.28;;;;;;;;;;4275018;33;20472;-65
2021/06/23 06:58:24;;;;;;;6.60;3.00;;;;;;;;;;4260848;33;20110;-65
2021/06/23 07:00:50;;;;;;;3.97;2.83;;;;;;;;;;4275059;33;20099;-65
2021/06/23 07:03:16;;;;;;;4.22;3.28;;;;;;;;;;4274980;33;20123;-66
2021/06/23 07:05:42;;;;;;;3.78;3.03;;;;;;;;;;4274821;33;20219;-65
2021/06/23 07:08:08;;;;;;;5.07;2.85;;;;;;;;;;4274944;33;20219;-65
2021/06/23 07:10:34;;;;;;;7.55;3.47;;;;;;;;;;4275186;33;20115;-65
2021/06/23 07:13:00;;;;;;;4.05;2.92;;;;;;;;;;4274817;33;20115;-66
2021/06/23 07:15:26;;;;;;;3.37;3.00;;;;;;;;;;4274964;33;20171;-64
2021/06/23 07:17:52;;;;;;;2.87;2.10;;;;;;;;;;4274641;33;20123;-66
2021/06/23 07:20:18;;;;;;;9.13;3.33;;;;;;;;;;4274576;33;20104;-66
2021/06/23 07:22:44;;;;;;;5.37;3.05;;;;;;;;;;4274671;33;20305;-64
2021/06/23 07:25:11;;;;;;;6.37;3.08;;;;;;;;;;4274508;33;20107;-65
2021/06/23 07:27:37;;;;;;;3.72;2.40;;;;;;;;;;4274750;33;20092;-65
2021/06/23 07:30:04;;;;;;;10.07;2.60;;;;;;;;;;4274698;33;20089;-65
2021/06/23 07:32:33;;;;;;;2.47;2.28;;;;;;;;;;4274785;33;20135;-65
2021/06/23 07:37:44;;;;;;;3.67;2.60;;;;;;;;;;4274684;33;20478;-66
2021/06/23 07:40:11;;;;;;;6.45;2.00;;;;;;;;;;4274245;33;20121;-66
2021/06/23 07:42:37;;;;;;;2.33;2.12;;;;;;;;;;4273121;33;20180;-66
2021/06/23 07:45:04;;;;;;;4.03;2.25;;;;;;;;;;4274213;33;20127;-66
2021/06/23 07:47:37;;;;;;;2.55;2.35;;;;;;;;;;4273178;33;20134;-67
2021/06/23 07:50:05;;;;;;;7.90;2.58;;;;;;;;;;4261034;33;20519;-66
2021/06/23 08:08:18;;;;;;;2.80;2.60;;;;;;;;;;4274164;33;20509;-65
2021/06/23 08:10:47;;;;;;;4.47;2.53;;;;;;;;;;4275280;33;20119;-65
2021/06/23 08:13:13;;;;;;;2.72;2.17;;;;;;;;;;4276406;33;20115;-67
2021/06/23 08:15:41;;;;;;;3.00;2.70;;;;;;;;;;4275137;33;20124;-65
2021/06/23 08:18:07;;;;;;;4.20;2.85;;;;;;;;;;4276398;33;20116;-65
2021/06/23 08:20:33;;;;;;;3.28;2.97;;;;;;;;;;4276614;33;20187;-65
2021/06/23 08:22:59;;;;;;;2.55;1.90;;;;;;;;;;4275017;33;20492;-65
2021/06/23 08:25:25;;;;;;;4.68;2.72;;;;;;;;;;4275150;33;20131;-66
2021/06/23 08:27:51;;;;;;;2.15;1.92;;;;;;;;;;4276344;33;20287;-66
2021/06/23 08:30:18;;;;;;;3.97;2.67;;;;;;;;;;4275270;33;20116;-66
2021/06/23 08:32:48;;;;;;;2.95;2.22;;;;;;;;;;4275088;33;20124;-66
2021/06/23 08:35:14;;;;;;;4.53;2.62;;;;;;;;;;4275288;33;20093;-65
2021/06/23 08:37:41;;;;;;;4.07;2.58;;;;;;;;;;4276284;33;20119;-65
2021/06/23 08:40:09;;;;;;;2.33;2.12;;;;;;;;;;4274849;33;20091;-65
2021/06/23 08:42:35;;;;;;;3.20;2.90;;;;;;;;;;4251419;33;20108;-65
2021/06/23 08:45:01;;;;;;;1.90;1.65;;;;;;;;;;4274284;33;20519;-65
2021/06/23 08:47:27;;;;;;;3.42;3.12;;;;;;;;;;4276168;33;20112;-65
2021/06/23 08:49:53;;;;;;;5.40;2.78;;;;;;;;;;4276099;33;20099;-65
2021/06/23 08:52:19;;;;;;;4.35;3.20;;;;;;;;;;4275036;33;20250;-65
2021/06/23 08:54:53;;;;;;;5.80;3.00;;;;;;;;;;4263006;33;20188;-65
2021/06/23 08:57:20;;;;;;;3.40;3.05;;;;;;;;;;4276194;33;20527;-65
2021/06/23 08:59:46;;;;;;;3.47;3.03;;;;;;;;;;4274889;33;20189;-65
2021/06/23 09:02:16;;;;;;;2.70;2.50;;;;;;;;;;4262658;33;20188;-65
2021/06/23 09:05:05;;;;;;;3.62;3.10;;;;;;;;;;4276135;33;20127;-65
2021/06/23 09:07:44;;;;;;;3.90;3.10;;;;;;;;;;4275928;33;20104;-65
2021/06/23 09:10:28;;;;;;;3.20;2.72;;;;;;;;;;4276080;33;20210;-65
2021/06/23 09:13:00;;;;;;;2.03;1.83;;;;;;;;;;4276241;33;20112;-65
2021/06/23 09:15:46;;;;;;;5.32;2.58;;;;;;;;;;4276134;33;20107;-65
2021/06/23 09:18:20;;;;;;;5.68;2.55;;;;;;;;;;4276093;33;20530;-65
2021/06/23 09:20:46;;;;;;;2.53;2.33;;;;;;;;;;4275352;33;20092;-65
2021/06/23 09:23:12;;;;;;;2.87;2.67;;;;;;;;;;4262323;33;20125;-64
2021/06/23 09:25:44;;;;;;;3.30;2.62;;;;;;;;;;4275782;33;20111;-64
2021/06/23 09:28:15;;;;;;;3.25;2.95;;;;;;;;;;4274650;33;20120;-65
2021/06/23 09:30:47;;;;;;;3.15;2.80;;;;;;;;;;4275936;33;20114;-66
2021/06/23 09:33:16;;;;;;;3.15;2.70;;;;;;;;;;4275921;33;20111;-66
2021/06/23 09:36:06;;;;;;;3.53;2.72;;;;;;;;;;4275803;33;20108;-66
2021/06/23 09:38:50;;;;;;;2.30;2.10;;;;;;;;;;4275763;33;20550;-66
2021/06/23 09:41:20;;;;;;;6.03;2.13;;;;;;;;;;4275807;33;20115;-66
2021/06/23 09:43:48;;;;;;;3.42;2.10;;;;;;;;;;4275821;33;20112;-64
2021/06/23 09:46:29;;;;;;;6.45;2.58;;;;;;;;;;4275723;33;20127;-65
2021/06/23 09:49:04;;;;;;;6.37;3.05;;;;;;;;;;4262074;33;20514;-65
2021/06/23 09:51:36;;;;;;;3.17;2.20;;;;;;;;;;4262166;33;20111;-65
2021/06/23 09:54:02;;;;;;;3.80;2.65;;;;;;;;;;4274413;33;20122;-63
2021/06/23 09:56:30;;;;;;;2.92;2.67;;;;;;;;;;4262237;33;20131;-64
2021/06/23 09:58:57;;;;;;;2.20;1.98;;;;;;;;;;4273919;33;20107;-64
2021/06/23 10:01:24;;;;;;;7.30;3.40;;;;;;;;;;4275546;33;20120;-64
2021/06/23 10:03:57;;;;;;;4.60;2.62;;;;;;;;;;4275633;33;20451;-65
2021/06/23 10:06:25;;;;;;;2.35;2.15;;;;;;;;;;4275776;33;20116;-65
2021/06/23 10:08:51;;;;;;;5.20;3.03;;;;;;;;;;4275179;33;20514;-66
2021/06/23 10:11:30;;;;;;;5.32;2.95;;;;;;;;;;4261989;33;20115;-66
2021/06/23 10:13:56;;;;;;;6.50;2.97;;;;;;;;;;4275266;33;20169;-63
2021/06/23 10:16:24;;;;;;;2.40;2.20;;;;;;;;;;4262523;33;20132;-65
2021/06/23 10:18:52;;;;;;;2.67;2.40;;;;;;;;;;4274265;33;20439;-66
2021/06/23 10:21:18;;;;;;;2.75;2.33;;;;;;;;;;4262204;33;20151;-66
2021/06/23 10:23:44;;;;;;;3.20;2.87;;;;;;;;;;4275246;33;20120;-66
2021/06/23 10:26:10;;;;;;;2.65;2.45;;;;;;;;;;4262356;33;20127;-66
2021/06/23 10:28:36;;;;;;;1.95;1.83;;;;;;;;;;4262144;33;20515;-64
2021/06/23 10:31:02;;;;;;;3.20;2.90;;;;;;;;;;4274503;33;20218;-64
2021/06/23 10:33:28;;;;;;;6.90;2.70;;;;;;;;;;4261371;33;20482;-66
2021/06/23 10:35:55;;;;;;;6.45;3.35;;;;;;;;;;4262478;33;20119;-66
2021/06/23 10:38:21;;;;;;;4.12;2.80;;;;;;;;;;4261703;33;20200;-65
2021/06/23 10:40:47;;;;;;;3.12;2.42;;;;;;;;;;4275398;33;20200;-66
2021/06/23 10:43:14;;;;;;;7.57;3.37;;;;;;;;;;4262023;33;20115;-66
2021/06/23 10:45:44;;;;;;;4.12;3.42;;;;;;;;;;4274929;33;20103;-66
2021/06/23 10:48:11;;;;;;;3.70;2.90;;;;;;;;;;4274885;33;20096;-66
2021/06/23 10:50:37;;;;;;;3.35;2.80;;;;;;;;;;4275104;33;20091;-66
2021/06/23 10:53:23;;;;;;;3.42;2.60;;;;;;;;;;4261891;33;20116;-66
2021/06/23 10:55:49;;;;;;;4.28;3.47;;;;;;;;;;4275210;33;20138;-65
2021/06/23 10:58:15;;;;;;;4.37;2.75;;;;;;;;;;4274747;33;20139;-64
2021/06/23 11:00:46;;;;;;;3.80;2.70;;;;;;;;;;4273417;33;20096;-64
2021/06/23 11:03:16;;;;;;;3.72;3.00;;;;;;;;;;4273348;33;20447;-66
2021/06/23 11:05:52;;;;;;;3.55;3.25;;;;;;;;;;4275096;33;20112;-66
2021/06/23 11:08:28;;;;;;;3.58;3.15;;;;;;;;;;4274734;33;20104;-66
2021/06/23 11:10:55;;;;;;;2.92;2.70;;;;;;;;;;4274853;33;20096;-67
2021/06/23 11:13:23;;;;;;;2.95;2.72;;;;;;;;;;4261810;33;20123;-66
2021/06/23 11:15:50;;;;;;;2.53;2.33;;;;;;;;;;4261768;33;20114;-65
2021/06/23 11:18:33;;;;;;;4.95;3.12;;;;;;;;;;4274793;33;20120;-65
2021/06/23 11:21:22;;;;;;;3.45;2.42;;;;;;;;;;4274874;33;20539;-66
2021/06/23 11:23:52;;;;;;;2.15;1.95;;;;;;;;;;4261242;33;20128;-65
2021/06/23 11:26:18;;;;;;;3.70;3.40;;;;;;;;;;4274513;33;20196;-65
2021/06/23 11:28:55;;;;;;;6.18;3.00;;;;;;;;;;4274711;33;20112;-64
2021/06/23 11:31:22;;;;;;;5.20;3.05;;;;;;;;;;4273151;33;20133;-65
2021/06/23 11:33:58;;;;;;;4.93;2.90;;;;;;;;;;4272862;33;20131;-67
2021/06/23 11:36:24;;;;;;;3.35;2.65;;;;;;;;;;4273261;33;20522;-64
2021/06/23 11:38:52;;;;;;;2.78;2.42;;;;;;;;;;4274527;33;20111;-66
2021/06/23 11:41:18;;;;;;;4.60;2.62;;;;;;;;;;4274613;33;20097;-66
2021/06/23 11:43:44;;;;;;;3.17;2.70;;;;;;;;;;4274526;33;20155;-65
2021/06/23 11:46:11;;;;;;;2.55;2.33;;;;;;;;;;4276899;33;20127;-66
2021/06/23 11:48:37;;;;;;;5.82;2.50;;;;;;;;;;4276682;33;20091;-67
2021/06/23 11:51:05;;;;;;;3.40;3.10;;;;;;;;;;4276837;33;20118;-67
2021/06/23 11:53:31;;;;;;;3.42;3.03;;;;;;;;;;4263441;33;20095;-65
2021/06/23 11:55:57;;;;;;;6.95;2.25;;;;;;;;;;4275330;33;20215;-65
2021/06/23 11:58:23;;;;;;;5.57;2.70;;;;;;;;;;4263495;33;20092;-66
2021/06/23 12:00:49;;;;;;;4.43;2.58;;;;;;;;;;4275468;33;20146;-65
2021/06/23 12:03:16;;;;;;;3.37;2.42;;;;;;;;;;4251913;33;20103;-65
2021/06/23 12:05:42;;;;;;;3.65;3.17;;;;;;;;;;4276742;33;20517;-65
2021/06/23 12:08:08;;;;;;;3.60;3.03;;;;;;;;;;4263574;33;20131;-64
2021/06/23 12:10:34;;;;;;;5.25;3.33;;;;;;;;;;4276680;33;20142;-66
2021/06/23 12:13:00;;;;;;;3.70;2.83;;;;;;;;;;4275388;33;20170;-66
2021/06/23 12:15:26;;;;;;;3.30;2.95;;;;;;;;;;4275268;33;20089;-65
2021/06/23 12:17:54;;;;;;;8.95;3.40;;;;;;;;;;4263330;33;20155;-66
2021/06/23 12:20:21;;;;;;;4.12;2.65;;;;;;;;;;4263155;33;20510;-65
2021/06/23 12:22:55;;;;;;;5.07;2.85;;;;;;;;;;4276441;33;20582;-65
2021/06/23 12:25:22;;;;;;;8.00;3.05;;;;;;;;;;4275184;33;20531;-66
2021/06/23 12:27:48;;;;;;;3.15;2.85;;;;;;;;;;4274904;33;20131;-66
2021/06/23 12:30:14;;;;;;;3.30;3.00;;;;;;;;;;4276524;33;20104;-64
2021/06/23 12:32:39;;;;;;;4.07;3.17;;;;;;;;;;4276472;33;20538;-65
2021/06/23 12:35:06;;;;;;;6.90;3.95;;;;;;;;;;4276347;33;20185;-65
2021/06/23 12:37:32;;;;;;;4.03;3.28;;;;;;;;;;4276229;33;20124;-67
2021/06/23 12:39:59;;;;;;;5.07;3.62;;;;;;;;;;4276472;33;20577;-65
2021/06/23 12:42:25;;;;;;;6.15;3.22;;;;;;;;;;4263023;33;20140;-67
2021/06/23 12:44:51;;;;;;;4.43;2.58;;;;;;;;;;4274944;33;20131;-66
2021/06/23 12:47:17;;;;;;;5.70;2.90;;;;;;;;;;4276091;33;20136;-65
2021/06/23 12:49:43;;;;;;;6.65;3.00;;;;;;;;;;4276221;33;20131;-65
2021/06/23 12:52:09;;;;;;;3.60;2.80;;;;;;;;;;4276550;33;20116;-66
2021/06/23 12:54:35;;;;;;;3.87;2.72;;;;;;;;;;4275971;33;20126;-66
2021/06/23 12:57:01;;;;;;;5.30;3.58;;;;;;;;;;4275561;33;20136;-65
2021/06/23 12:59:30;;;;;;;3.95;3.25;;;;;;;;;;4275937;33;20123;-66
2021/06/23 13:01:57;;;;;;;5.60;3.00;;;;;;;;;;4276236;33;20101;-67
2021/06/23 13:04:24;;;;;;;6.15;3.12;;;;;;;;;;4262799;33;20100;-65
2021/06/23 13:06:50;;;;;;;2.40;2.20;;;;;;;;;;4275987;33;20132;-67
2021/06/23 13:09:16;;;;;;;3.30;3.00;;;;;;;;;;4276196;33;20112;-64
2021/06/23 13:11:42;;;;;;;3.45;3.15;;;;;;;;;;4276279;33;20147;-64
2021/06/23 13:14:08;;;;;;;4.62;3.37;;;;;;;;;;4275902;33;20120;-66
2021/06/23 13:16:34;;;;;;;4.72;3.53;;;;;;;;;;4275904;33;20116;-66
2021/06/23 13:18:59;;;;;;;4.00;3.40;;;;;;;;;;4275759;33;20122;-66
2021/06/23 13:21:26;;;;;;;4.57;3.83;;;;;;;;;;4274561;33;20127;-66
2021/06/23 13:23:52;;;;;;;3.42;2.87;;;;;;;;;;4275778;33;20100;-66
2021/06/23 13:26:18;;;;;;;4.37;3.25;;;;;;;;;;4275784;33;20241;-66
2021/06/23 13:28:44;;;;;;;3.20;2.90;;;;;;;;;;4262700;33;20111;-64
2021/06/23 13:31:10;;;;;;;5.72;2.78;;;;;;;;;;4275878;33;20120;-64
2021/06/23 13:33:36;;;;;;;6.15;2.92;;;;;;;;;;4274270;33;20139;-65
2021/06/23 13:36:02;;;;;;;4.87;2.60;;;;;;;;;;4275702;33;20132;-66
2021/06/23 13:38:28;;;;;;;4.20;3.15;;;;;;;;;;4275551;33;20561;-66
2021/06/23 13:40:56;;;;;;;6.57;3.05;;;;;;;;;;4274572;33;20527;-64
2021/06/23 13:43:23;;;;;;;4.75;2.95;;;;;;;;;;4262647;33;20123;-64
2021/06/23 13:45:49;;;;;;;6.35;3.20;;;;;;;;;;4274209;33;20212;-66
2021/06/23 13:48:15;;;;;;;3.53;3.00;;;;;;;;;;4262509;33;20126;-64
2021/06/23 13:50:41;;;;;;;8.10;3.00;;;;;;;;;;4275767;33;20123;-65
2021/06/23 13:53:08;;;;;;;7.72;3.72;;;;;;;;;;4273847;33;20115;-66
2021/06/23 13:55:35;;;;;;;2.12;1.92;;;;;;;;;;4275418;33;20507;-66
2021/06/23 13:58:02;;;;;;;5.18;3.35;;;;;;;;;;4275709;33;20590;-66
2021/06/23 14:00:32;;;;;;;5.45;3.00;;;;;;;;;;4274141;33;20730;-67
2021/06/23 14:02:59;;;;;;;4.82;2.92;;;;;;;;;;4275330;33;20108;-67
2021/06/23 14:05:25;;;;;;;6.20;3.37;;;;;;;;;;4275429;33;20109;-66
2021/06/23 14:07:52;;;;;;;3.92;3.15;;;;;;;;;;4275657;33;20126;-67
2021/06/23 14:10:18;;;;;;;8.18;2.60;;;;;;;;;;4274195;33;20511;-63
2021/06/23 14:12:44;;;;;;;4.78;2.85;;;;;;;;;;4274074;33;20197;-63
2021/06/23 14:15:11;;;;;;;2.97;2.67;;;;;;;;;;4275367;33;20222;-65
2021/06/23 14:17:37;;;;;;;4.90;3.55;;;;;;;;;;4275647;33;20112;-66
2021/06/23 14:20:04;;;;;;;6.25;3.85;;;;;;;;;;4273581;33;20130;-64
2021/06/23 14:22:30;;;;;;;8.23;3.45;;;;;;;;;;4275355;33;20142;-63
2021/06/23 14:24:56;;;;;;;4.43;3.85;;;;;;;;;;4273929;33;20132;-66
2021/06/23 14:27:24;;;;;;;6.75;3.60;;;;;;;;;;4275327;33;20226;-65
2021/06/23 14:29:50;;;;;;;5.25;3.20;;;;;;;;;;4275242;33;20096;-64
2021/06/23 14:32:17;;;;;;;4.68;3.30;;;;;;;;;;4273835;33;20191;-64
2021/06/23 14:34:44;;;;;;;5.30;3.90;;;;;;;;;;4275342;33;20226;-66
2021/06/23 14:37:10;;;;;;;5.28;3.85;;;;;;;;;;4275560;33;20103;-66
2021/06/23 14:39:36;;;;;;;5.05;3.17;;;;;;;;;;4275299;33;20104;-65
2021/06/23 14:42:02;;;;;;;3.47;3.03;;;;;;;;;;4274050;33;20115;-65
2021/06/23 14:44:28;;;;;;;7.07;3.62;;;;;;;;;;4274761;33;20462;-67
2021/06/23 14:46:54;;;;;;;3.60;3.20;;;;;;;;;;4275352;33;20621;-68
2021/06/23 14:49:20;;;;;;;4.47;3.53;;;;;;;;;;4274883;33;20206;-67
2021/06/23 14:51:46;;;;;;;4.55;3.17;;;;;;;;;;4261768;33;20112;-67
2021/06/23 14:54:12;;;;;;;4.07;3.20;;;;;;;;;;4273555;33;20124;-68
2021/06/23 14:56:39;;;;;;;5.97;3.53;;;;;;;;;;4273543;33;20122;-65
2021/06/23 14:59:06;;;;;;;4.40;3.37;;;;;;;;;;4261995;33;20115;-65
2021/06/23 15:01:35;;;;;;;5.37;3.60;;;;;;;;;;4275183;33;20470;-64
2021/06/23 15:04:02;;;;;;;4.20;3.65;;;;;;;;;;4274862;33;20119;-64
2021/06/23 15:06:29;;;;;;;4.15;3.28;;;;;;;;;;4274859;33;20451;-64
2021/06/23 15:08:55;;;;;;;5.18;2.95;;;;;;;;;;4273953;33;20119;-65
2021/06/23 15:11:35;;;;;;;6.55;3.87;;;;;;;;;;4261941;33;20202;-66
2021/06/23 15:14:12;;;;;;;8.90;4.05;;;;;;;;;;4263149;33;20116;-64
2021/06/23 15:16:38;;;;;;;8.05;4.00;;;;;;;;;;4274832;33;20135;-66
2021/06/23 15:19:04;;;;;;;8.00;3.67;;;;;;;;;;4261524;33;20224;-66
2021/06/23 15:21:31;;;;;;;4.40;3.12;;;;;;;;;;4263437;33;20127;-65
2021/06/23 15:23:58;;;;;;;4.90;3.70;;;;;;;;;;4276672;33;20255;-65
2021/06/23 15:26:24;;;;;;;6.07;3.80;;;;;;;;;;4276743;33;20126;-64
2021/06/23 15:28:51;;;;;;;4.93;3.58;;;;;;;;;;4276418;33;20120;-64